Time;durP1;ratioP1;P1;durP2;ratioP2;P2;SDS_P1;SDS_P2;PMS_P1;PMS_P2;Temp;Humidity;BMP_temperature;BMP_pressure;BME280_temperature;BME280_humidity;BME280_pressure;Samples;Min_cycle;Max_cycle;Signal;HPM_P1;HPM_P2
2022/03/22 00:02:09;;;;;;;6.65;3.88;;;;;;;6.05;100.00;101081.44;7400756;19;20063;-91
2022/03/22 00:04:35;;;;;;;12.68;4.18;;;;;;;6.03;100.00;101078.28;7395413;19;20015;-91
2022/03/22 00:07:00;;;;;;;11.40;3.80;;;;;;;6.00;100.00;101074.38;7393644;19;20015;-91
2022/03/22 00:09:26;;;;;;;11.98;4.80;;;;;;;5.98;100.00;101068.47;7398587;19;20011;-91
2022/03/22 00:11:54;;;;;;;12.80;4.22;;;;;;;6.01;100.00;101081.50;7398861;19;20022;-90
2022/03/22 00:14:20;;;;;;;10.68;4.32;;;;;;;5.96;100.00;101079.16;7396970;19;20025;-90
2022/03/22 00:16:45;;;;;;;6.43;3.00;;;;;;;5.91;100.00;101068.56;7393663;19;20011;-90
2022/03/22 00:19:11;;;;;;;8.35;4.13;;;;;;;5.88;100.00;101074.94;7398203;19;20034;-91
2022/03/22 00:21:39;;;;;;;19.10;3.85;;;;;;;5.86;100.00;101080.09;7397577;19;20007;-91
2022/03/22 00:24:05;;;;;;;9.45;3.35;;;;;;;5.88;100.00;101083.22;7393254;19;20038;-91
2022/03/22 00:26:30;;;;;;;6.03;4.32;;;;;;;5.89;100.00;101090.31;7396033;19;20461;-91
2022/03/22 00:28:57;;;;;;;15.43;4.15;;;;;;;5.92;100.00;101088.72;7394224;19;20015;-90
2022/03/22 00:31:23;;;;;;;9.88;3.72;;;;;;;5.87;100.00;101091.91;7398545;19;20014;-90
2022/03/22 00:33:48;;;;;;;16.83;5.22;;;;;;;5.84;100.00;101090.78;7393795;19;20018;-91
2022/03/22 00:36:14;;;;;;;14.75;4.15;;;;;;;5.80;100.00;101076.19;7394416;19;20133;-91
2022/03/22 00:38:41;;;;;;;5.00;4.10;;;;;;;5.81;100.00;101083.28;7393769;19;20026;-91
2022/03/22 00:41:07;;;;;;;5.75;4.03;;;;;;;5.80;100.00;101078.97;7395103;19;20011;-91
2022/03/22 00:43:34;;;;;;;5.63;3.05;;;;;;;5.71;100.00;101080.66;7392337;19;20030;-91
2022/03/22 00:46:01;;;;;;;10.20;3.00;;;;;;;5.73;100.00;101076.28;7394056;19;20022;-91
2022/03/22 00:48:30;;;;;;;11.75;4.57;;;;;;;5.65;100.00;101080.28;7392446;19;20480;-91
2022/03/22 00:50:56;;;;;;;12.48;4.00;;;;;;;5.66;100.00;101076.34;7396701;19;20030;-91
2022/03/22 00:53:21;;;;;;;8.15;3.63;;;;;;;5.67;100.00;101075.16;7393802;19;20011;-90
2022/03/22 00:55:48;;;;;;;7.28;3.00;;;;;;;5.69;100.00;101075.53;7394059;19;20006;-91
2022/03/22 00:58:15;;;;;;;16.10;5.00;;;;;;;5.72;100.00;101085.75;7391044;19;20044;-91
2022/03/22 01:00:41;;;;;;;19.63;3.78;;;;;;;5.70;100.00;101082.63;7394467;19;20014;-91
2022/03/22 01:03:08;;;;;;;7.47;4.10;;;;;;;5.59;100.00;101081.94;7395041;19;20014;-91
2022/03/22 01:05:35;;;;;;;18.58;6.30;;;;;;;5.60;100.00;101083.53;7393953;19;20014;-90
2022/03/22 01:08:08;;;;;;;14.10;5.45;;;;;;;5.54;100.00;101078.88;7393295;19;20018;-90
2022/03/22 01:10:37;;;;;;;11.60;3.65;;;;;;;5.54;100.00;101079.66;7394001;19;20010;-91
2022/03/22 01:13:03;;;;;;;5.20;2.13;;;;;;;5.57;100.00;101081.59;7392950;19;20477;-92
2022/03/22 01:15:33;;;;;;;3.85;3.05;;;;;;;5.55;100.00;101069.38;7392662;19;20022;-90
2022/03/22 01:18:05;;;;;;;14.38;3.97;;;;;;;5.51;100.00;101071.38;7391107;19;20011;-91
2022/03/22 01:20:33;;;;;;;4.38;3.08;;;;;;;5.49;100.00;101074.56;7394065;19;20074;-90
2022/03/22 01:23:00;;;;;;;6.53;3.05;;;;;;;5.50;100.00;101078.88;7394559;19;20036;-91
2022/03/22 01:25:27;;;;;;;8.73;3.10;;;;;;;5.52;100.00;101071.00;7393539;19;20015;-91
2022/03/22 01:27:54;;;;;;;8.38;3.13;;;;;;;5.51;100.00;101068.63;7391534;19;20026;-91
2022/03/22 01:30:21;;;;;;;7.18;2.42;;;;;;;5.50;100.00;101067.84;7398706;19;20522;-91
2022/03/22 01:32:51;;;;;;;11.90;4.95;;;;;;;5.55;100.00;101067.41;7400635;19;20014;-91
2022/03/22 01:35:17;;;;;;;6.60;3.38;;;;;;;5.51;100.00;101063.91;7400178;19;20019;-90
2022/03/22 01:37:44;;;;;;;14.93;3.58;;;;;;;5.51;100.00;101058.38;7397179;19;20038;-89
2022/03/22 01:40:11;;;;;;;7.47;2.70;;;;;;;5.52;100.00;101062.72;7400271;19;20022;-90
2022/03/22 01:42:36;;;;;;;15.32;4.72;;;;;;;5.50;100.00;101062.31;7397668;19;20362;-90
2022/03/22 01:45:02;;;;;;;6.15;3.00;;;;;;;5.43;100.00;101059.66;7399362;19;20023;-91
2022/03/22 01:47:28;;;;;;;11.48;2.78;;;;;;;5.34;100.00;101051.06;7398896;19;20488;-91
2022/03/22 01:49:57;;;;;;;12.20;4.05;;;;;;;5.32;100.00;101053.44;7399676;19;20011;-90
2022/03/22 01:52:24;;;;;;;4.35;3.20;;;;;;;5.29;100.00;101051.50;7404510;19;20022;-90
2022/03/22 01:54:54;;;;;;;9.48;4.10;;;;;;;5.31;100.00;101058.19;7401711;19;20469;-90
2022/03/22 01:57:20;;;;;;;5.68;2.65;;;;;;;5.33;100.00;101058.56;7397113;19;20014;-90
2022/03/22 01:59:47;;;;;;;7.78;2.47;;;;;;;5.39;100.00;101056.16;7398799;19;20037;-91
2022/03/22 02:07:47;;;;;;;12.13;3.67;;;;;;;5.30;100.00;101051.09;7397924;19;20496;-91
2022/03/22 02:10:13;;;;;;;10.57;3.55;;;;;;;5.26;100.00;101053.09;7399744;19;20022;-91
2022/03/22 02:12:40;;;;;;;3.85;2.35;;;;;;;5.17;100.00;101054.78;7397864;19;20833;-91
2022/03/22 02:15:07;;;;;;;3.95;2.58;;;;;;;5.18;100.00;101056.34;7398322;19;20010;-91
2022/03/22 02:17:34;;;;;;;6.22;3.10;;;;;;;5.16;100.00;101050.44;7398088;19;20019;-91
2022/03/22 02:20:01;;;;;;;3.03;1.80;;;;;;;5.16;100.00;101055.97;7400209;19;20045;-91
2022/03/22 02:22:40;;;;;;;15.45;6.05;;;;;;;5.13;100.00;101049.28;7401650;19;20026;-92
2022/03/22 02:25:15;;;;;;;12.82;3.63;;;;;;;5.13;100.00;101054.81;7398874;19;20111;-91
2022/03/22 02:27:44;;;;;;;7.70;2.92;;;;;;;5.15;100.00;101057.97;7397231;19;20014;-92
2022/03/22 02:30:15;;;;;;;9.30;2.85;;;;;;;5.11;100.00;101046.16;7398026;19;20023;-91
2022/03/22 02:32:55;;;;;;;9.13;2.70;;;;;;;5.09;100.00;101048.53;7398337;19;20022;-92
2022/03/22 02:35:22;;;;;;;9.30;2.95;;;;;;;5.11;100.00;101050.91;7399432;19;20022;-92
2022/03/22 02:37:49;;;;;;;1.80;1.50;;;;;;;5.10;100.00;101049.34;7399275;19;20002;-91
2022/03/22 02:40:16;;;;;;;6.82;2.65;;;;;;;5.05;100.00;101044.25;7397310;19;20047;-91
2022/03/22 02:42:50;;;;;;;7.30;2.33;;;;;;;5.05;100.00;101047.78;7398088;19;20081;-91
2022/03/22 02:45:18;;;;;;;9.80;3.95;;;;;;;5.06;100.00;101048.59;7399537;19;20024;-91
2022/03/22 02:47:44;;;;;;;14.10;3.03;;;;;;;5.10;100.00;101049.34;7395630;19;20070;-90
2022/03/22 02:50:11;;;;;;;4.90;2.83;;;;;;;5.08;100.00;101052.50;7401146;19;20015;-96
2022/03/22 02:52:38;;;;;;;17.77;3.38;;;;;;;5.03;100.00;101039.13;7404682;19;20014;-96
2022/03/22 02:55:06;;;;;;;4.40;2.20;;;;;;;5.02;100.00;101047.84;7398253;19;20574;-57
2022/03/22 02:57:37;;;;;;;4.85;2.25;;;;;;;5.00;100.00;101044.69;7398285;19;20631;-57
2022/03/22 03:00:06;;;;;;;23.67;10.43;;;;;;;5.03;100.00;101041.09;7398681;19;20045;-57
2022/03/22 03:02:32;;;;;;;15.60;4.78;;;;;;;5.07;100.00;101050.13;7398791;19;20037;-57
2022/03/22 03:04:57;;;;;;;11.65;3.97;;;;;;;5.06;100.00;101041.09;7395209;19;20066;-57
2022/03/22 03:07:23;;;;;;;6.25;3.15;;;;;;;5.03;100.00;101041.91;7395301;19;20011;-57
2022/03/22 03:09:49;;;;;;;10.77;3.75;;;;;;;5.02;100.00;101037.59;7395960;19;20010;-57
2022/03/22 03:12:15;;;;;;;5.63;2.30;;;;;;;5.05;100.00;101031.22;7400010;19;20010;-57
2022/03/22 03:14:43;;;;;;;5.05;2.63;;;;;;;5.06;100.00;101035.56;7396479;19;20501;-57
2022/03/22 03:17:13;;;;;;;2.03;1.80;;;;;;;5.05;100.00;101035.97;7395156;19;20110;-57
2022/03/22 03:19:39;;;;;;;4.20;3.22;;;;;;;5.02;100.00;101036.78;7394326;19;20420;-55
2022/03/22 03:22:05;;;;;;;5.03;2.92;;;;;;;4.96;100.00;101028.16;7396749;19;20018;-55
2022/03/22 03:24:32;;;;;;;7.63;4.57;;;;;;;4.94;100.00;101035.28;7396334;19;20418;-55
2022/03/22 03:26:58;;;;;;;9.27;2.58;;;;;;;4.95;100.00;101034.09;7393239;19;20363;-55
2022/03/22 03:29:24;;;;;;;8.63;4.28;;;;;;;4.92;100.00;101029.38;7394397;19;20025;-56
2022/03/22 03:31:50;;;;;;;3.70;2.45;;;;;;;4.92;100.00;101021.88;7398538;19;20006;-56
2022/03/22 03:34:16;;;;;;;7.85;4.75;;;;;;;4.91;100.00;101036.09;7395152;19;20129;-56
2022/03/22 03:36:42;;;;;;;10.23;2.88;;;;;;;4.87;100.00;101021.56;7398592;19;20018;-56
2022/03/22 03:39:08;;;;;;;6.97;3.08;;;;;;;4.88;100.00;101028.63;7395041;19;20037;-56
2022/03/22 03:47:14;;;;;;;3.75;2.88;;;;;;;4.95;100.00;101025.81;7394506;19;20493;-56
2022/03/22 03:49:44;;;;;;;15.18;3.83;;;;;;;4.95;100.00;101025.81;7394926;19;20026;-56
2022/03/22 03:52:24;;;;;;;16.60;3.55;;;;;;;4.95;100.00;101025.81;7398806;19;20047;-56
2022/03/22 03:54:50;;;;;;;5.30;3.08;;;;;;;4.93;100.00;101028.19;7397563;19;20018;-56
2022/03/22 03:57:16;;;;;;;12.75;2.33;;;;;;;5.01;100.00;101018.66;7394347;19;20015;-56
2022/03/22 03:59:43;;;;;;;8.07;2.42;;;;;;;5.06;100.00;101026.50;7396929;19;20083;-56
2022/03/22 04:02:10;;;;;;;7.68;2.63;;;;;;;5.04;100.00;101031.66;7393984;19;20021;-56
2022/03/22 04:04:37;;;;;;;2.58;2.38;;;;;;;5.04;100.00;101026.13;7392330;19;20018;-57
2022/03/22 04:07:04;;;;;;;4.43;3.33;;;;;;;4.98;100.00;101025.78;7391627;19;20022;-56
2022/03/22 04:09:32;;;;;;;16.05;2.63;;;;;;;4.98;100.00;101025.00;7392871;19;20019;-56
2022/03/22 04:11:58;;;;;;;10.30;2.88;;;;;;;4.94;100.00;101025.03;7397341;19;20021;-56
2022/03/22 04:14:23;;;;;;;14.00;2.03;;;;;;;4.93;100.00;101022.69;7392333;19;20018;-56
2022/03/22 04:16:50;;;;;;;8.63;3.53;;;;;;;4.92;100.00;101016.38;7391509;19;20415;-57
2022/03/22 04:19:16;;;;;;;10.70;2.67;;;;;;;4.91;100.00;101025.84;7389747;19;20037;-56
2022/03/22 04:21:42;;;;;;;5.55;2.50;;;;;;;4.93;100.00;101023.47;7395894;19;20074;-56
2022/03/22 04:24:10;;;;;;;8.00;3.10;;;;;;;4.97;100.00;101028.94;7394764;19;20031;-56
2022/03/22 04:26:37;;;;;;;3.75;1.73;;;;;;;4.97;100.00;101034.47;7391759;19;20011;-56
2022/03/22 04:34:33;;;;;;;14.98;2.67;;;;;;;4.92;100.00;101032.13;7391429;19;20074;-56
2022/03/22 04:37:02;;;;;;;1.92;1.73;;;;;;;4.87;100.00;101029.84;7389334;19;20045;-56
2022/03/22 04:39:29;;;;;;;5.75;4.15;;;;;;;4.85;100.00;101032.22;7391636;19;20022;-56
2022/03/22 04:41:57;;;;;;;4.60;2.70;;;;;;;4.84;100.00;101036.16;7396597;19;20078;-56
2022/03/22 04:44:26;;;;;;;7.07;2.72;;;;;;;4.82;100.00;101031.06;7391837;19;20014;-56
2022/03/22 04:46:52;;;;;;;11.63;3.28;;;;;;;4.83;100.00;101040.13;7391560;19;20030;-56
2022/03/22 04:49:18;;;;;;;7.97;2.58;;;;;;;4.81;100.00;101039.75;7390814;19;20022;-57
2022/03/22 04:57:13;;;;;;;2.95;2.50;;;;;;;4.78;100.00;101040.56;7395701;19;20038;-56
2022/03/22 04:59:38;;;;;;;3.85;1.98;;;;;;;4.79;100.00;101039.34;7392928;19;20019;-56
2022/03/22 05:02:04;;;;;;;9.93;2.67;;;;;;;4.77;100.00;101036.22;7393845;19;20477;-56
2022/03/22 05:04:30;;;;;;;14.02;4.20;;;;;;;4.74;100.00;101045.31;7396133;19;20052;-56
2022/03/22 05:06:56;;;;;;;3.67;3.33;;;;;;;4.75;100.00;101038.59;7401513;19;20019;-56
2022/03/22 05:09:24;;;;;;;8.38;4.63;;;;;;;4.72;100.00;101042.19;7402969;19;20015;-56
2022/03/22 05:11:51;;;;;;;8.82;3.97;;;;;;;4.74;100.00;101048.09;7401649;19;20022;-56
2022/03/22 05:14:16;;;;;;;10.95;3.90;;;;;;;4.73;100.00;101041.00;7398057;19;20019;-56
2022/03/22 05:16:45;;;;;;;11.40;4.18;;;;;;;4.72;100.00;101050.47;7397932;19;20466;-56
2022/03/22 05:19:13;;;;;;;2.67;2.47;;;;;;;4.75;100.00;101038.59;7399402;19;20044;-56
2022/03/22 05:21:40;;;;;;;5.15;3.15;;;;;;;4.75;100.00;101038.59;7402750;19;20026;-56
2022/03/22 05:24:06;;;;;;;5.65;3.75;;;;;;;4.75;100.00;101044.13;7398063;19;20014;-56
2022/03/22 05:26:32;;;;;;;11.38;3.90;;;;;;;4.76;100.00;101045.69;7399497;19;20074;-56
2022/03/22 05:28:58;;;;;;;16.65;3.70;;;;;;;4.75;100.00;101039.41;7400480;19;20031;-56
2022/03/22 05:31:25;;;;;;;7.90;3.88;;;;;;;4.70;100.00;101039.81;7400147;19;20015;-56
2022/03/22 05:33:52;;;;;;;8.57;2.63;;;;;;;4.65;100.00;101045.00;7397464;19;20355;-56
2022/03/22 05:36:18;;;;;;;11.80;4.15;;;;;;;4.66;100.00;101052.09;7398945;19;20017;-56
2022/03/22 05:38:44;;;;;;;16.50;4.13;;;;;;;4.63;100.00;101047.38;7400439;19;20010;-56
2022/03/22 05:41:10;;;;;;;7.53;2.88;;;;;;;4.61;100.00;101045.03;7401263;19;20025;-56
2022/03/22 05:43:36;;;;;;;5.40;3.40;;;;;;;4.63;100.00;101047.38;7393864;19;20011;-56
2022/03/22 05:46:03;;;;;;;6.75;3.13;;;;;;;4.59;100.00;101047.41;7396777;19;20014;-56
2022/03/22 05:48:29;;;;;;;18.08;3.22;;;;;;;4.57;100.00;101047.81;7395365;19;20485;-56
2022/03/22 05:50:56;;;;;;;13.35;3.55;;;;;;;4.58;100.00;101043.88;7398233;19;20018;-56
2022/03/22 05:53:22;;;;;;;7.80;3.40;;;;;;;4.61;100.00;101056.84;7396487;19;20018;-56
2022/03/22 05:55:48;;;;;;;2.60;2.40;;;;;;;4.63;100.00;101059.97;7397769;19;20352;-56
2022/03/22 05:58:13;;;;;;;9.10;3.75;;;;;;;4.59;100.00;101059.22;7396920;19;20021;-56
2022/03/22 06:00:39;;;;;;;8.02;2.95;;;;;;;4.54;100.00;101056.13;7399754;19;20014;-56
2022/03/22 06:03:05;;;;;;;2.72;2.47;;;;;;;4.59;100.00;101056.47;7395506;19;20459;-56
2022/03/22 06:05:30;;;;;;;9.85;3.10;;;;;;;4.57;100.00;101053.31;7396157;19;20018;-56
2022/03/22 06:07:58;;;;;;;8.20;3.67;;;;;;;4.65;100.00;101056.03;7396732;19;20078;-56
2022/03/22 06:10:24;;;;;;;9.32;3.22;;;;;;;4.70;100.00;101063.88;7398330;19;20011;-56
2022/03/22 06:12:53;;;;;;;4.18;1.70;;;;;;;4.75;100.00;101060.69;7398820;19;20016;-56
2022/03/22 06:15:21;;;;;;;6.03;2.80;;;;;;;4.75;100.00;101060.69;7394403;19;20014;-56
2022/03/22 06:17:49;;;;;;;11.57;2.55;;;;;;;4.79;100.00;101066.94;7397293;19;20014;-56
2022/03/22 06:20:17;;;;;;;11.73;5.30;;;;;;;4.80;100.00;101074.06;7396509;19;20018;-56
2022/03/22 06:22:45;;;;;;;12.15;5.20;;;;;;;4.80;100.00;101063.00;7396241;19;20518;-56
2022/03/22 06:25:12;;;;;;;5.63;2.95;;;;;;;4.84;100.00;101069.28;7395355;19;20466;-56
2022/03/22 06:27:38;;;;;;;6.38;2.53;;;;;;;4.87;100.00;101068.47;7396444;19;20026;-56
2022/03/22 06:30:06;;;;;;;5.88;2.38;;;;;;;4.94;100.00;101074.72;7397151;19;20343;-56
2022/03/22 06:32:45;;;;;;;10.85;3.33;;;;;;;4.97;100.00;101073.13;7395795;19;20028;-57
2022/03/22 06:35:18;;;;;;;7.70;2.90;;;;;;;4.93;100.00;101073.16;7397604;19;20022;-56
2022/03/22 06:37:46;;;;;;;7.60;3.13;;;;;;;4.90;100.00;101073.16;7395670;19;20025;-56
2022/03/22 06:40:12;;;;;;;3.83;2.15;;;;;;;4.99;100.00;101073.47;7395216;19;20027;-56
2022/03/22 06:42:40;;;;;;;3.65;2.30;;;;;;;5.08;100.00;101076.56;7394885;19;20374;-56
2022/03/22 06:45:07;;;;;;;13.23;3.28;;;;;;;5.09;100.00;101086.44;7395513;19;20110;-56
2022/03/22 06:47:34;;;;;;;5.07;2.00;;;;;;;5.15;100.00;101076.50;7396381;19;20014;-56
2022/03/22 06:50:01;;;;;;;13.02;3.90;;;;;;;5.17;100.00;101077.66;7395689;19;20451;-57
2022/03/22 06:52:27;;;;;;;3.63;1.55;;;;;;;5.26;100.00;101077.19;7400809;19;20026;-56
2022/03/22 06:54:53;;;;;;;7.25;4.10;;;;;;;5.32;100.00;101072.78;7394567;19;20454;-57
2022/03/22 06:57:19;;;;;;;14.93;4.25;;;;;;;5.25;100.00;101072.84;7396180;19;20031;-56
2022/03/22 06:59:44;;;;;;;6.05;3.53;;;;;;;5.44;100.00;101057.66;7395016;19;20010;-56
2022/03/22 07:02:10;;;;;;;9.30;4.10;;;;;;;5.49;100.00;101066.28;7399262;19;20030;-56
2022/03/22 07:04:36;;;;;;;8.00;2.53;;;;;;;5.53;100.00;101067.03;7395612;19;20022;-56
2022/03/22 07:07:02;;;;;;;16.98;3.25;;;;;;;5.60;100.00;101074.44;7394279;19;20018;-56
2022/03/22 07:09:28;;;;;;;14.65;4.82;;;;;;;5.66;100.00;101070.03;7396085;19;20022;-56
2022/03/22 07:11:56;;;;;;;15.00;4.10;;;;;;;5.76;100.00;101069.91;7397679;19;20082;-56
2022/03/22 07:14:27;;;;;;;6.40;4.63;;;;;;;5.87;100.00;101070.59;7394059;19;20019;-56
2022/03/22 07:16:54;;;;;;;5.68;2.35;;;;;;;5.97;100.00;101075.22;7394373;19;20070;-56
2022/03/22 07:19:21;;;;;;;20.48;4.05;;;;;;;6.07;100.00;101074.28;7394533;19;20030;-56
2022/03/22 07:21:48;;;;;;;15.98;3.95;;;;;;;6.15;100.00;101077.72;7397163;19;20037;-56
2022/03/22 07:24:15;;;;;;;16.70;3.80;;;;;;;6.26;100.00;101080.38;7394588;19;20018;-56
2022/03/22 07:26:41;;;;;;;10.90;3.47;;;;;;;6.35;100.00;101077.84;7393617;19;20026;-56
2022/03/22 07:29:08;;;;;;;14.45;3.97;;;;;;;6.39;100.00;101073.84;7395590;19;20019;-56
2022/03/22 07:31:37;;;;;;;12.10;3.78;;;;;;;6.42;100.00;101078.56;7395771;19;20018;-57
2022/03/22 07:34:06;;;;;;;1.67;1.20;;;;;;;6.50;100.00;101082.78;7393995;19;20022;-57
2022/03/22 07:36:33;;;;;;;14.23;4.55;;;;;;;6.59;100.00;101073.94;7393792;19;20039;-57
2022/03/22 07:39:00;;;;;;;16.75;4.68;;;;;;;6.75;100.00;101085.16;7395404;19;20014;-57
2022/03/22 07:41:26;;;;;;;15.57;4.72;;;;;;;6.92;100.00;101084.09;7397106;19;20041;-56
2022/03/22 07:43:54;;;;;;;14.52;3.45;;;;;;;7.16;100.00;101077.38;7390974;19;20782;-56
2022/03/22 07:46:20;;;;;;;14.90;4.57;;;;;;;7.37;100.00;101076.97;7394233;19;20467;-57
2022/03/22 07:48:46;;;;;;;13.65;4.68;;;;;;;7.54;100.00;101081.41;7394559;19;20293;-57
2022/03/22 07:53:55;;;;;;;11.60;3.38;;;;;;;8.14;100.00;101062.75;7395492;19;20010;-56
2022/03/22 07:56:21;;;;;;;10.63;4.60;;;;;;;8.31;100.00;101070.72;7393650;19;20007;-57
2022/03/22 07:58:47;;;;;;;21.23;6.35;;;;;;;8.49;100.00;101072.31;7393789;19;20010;-56
2022/03/22 08:01:12;;;;;;;12.30;2.53;;;;;;;8.68;100.00;101072.25;7396274;19;20495;-56
2022/03/22 08:03:38;;;;;;;18.42;5.45;;;;;;;8.85;100.00;101075.81;7392215;19;20015;-56
2022/03/22 08:06:07;;;;;;;11.93;5.50;;;;;;;8.97;100.00;101077.88;7394668;19;20017;-56
2022/03/22 08:08:34;;;;;;;18.90;5.38;;;;;;;9.14;100.00;101080.22;7394734;19;20028;-56
2022/03/22 08:11:00;;;;;;;17.27;6.05;;;;;;;9.26;100.00;101069.59;7395936;19;20029;-56
2022/03/22 08:13:26;;;;;;;17.00;5.85;;;;;;;9.37;100.00;101084.78;7394282;19;20168;-56
2022/03/22 08:15:52;;;;;;;33.08;7.25;;;;;;;9.51;100.00;101075.28;7394325;19;20030;-57
2022/03/22 08:18:18;;;;;;;12.48;5.45;;;;;;;9.57;100.00;101084.66;7395453;19;20034;-57
2022/03/22 08:20:44;;;;;;;14.65;5.30;;;;;;;9.66;100.00;101076.44;7395837;19;20021;-56
2022/03/22 08:23:09;;;;;;;19.45;5.18;;;;;;;9.82;100.00;101091.09;7392258;19;20046;-56
2022/03/22 08:25:37;;;;;;;20.77;5.88;;;;;;;9.95;100.00;101093.91;7392982;19;20006;-56
2022/03/22 08:28:05;;;;;;;15.23;6.47;;;;;;;10.02;100.00;101093.72;7392929;19;20039;-56
2022/03/22 08:30:32;;;;;;;23.45;5.20;;;;;;;10.14;100.00;101095.75;7393858;19;20023;-56
2022/03/22 08:32:59;;;;;;;18.25;5.20;;;;;;;10.26;100.00;101089.47;7392224;19;20459;-56
2022/03/22 08:35:26;;;;;;;24.25;5.40;;;;;;;10.46;100.00;101090.00;7394460;19;20019;-56
2022/03/22 08:37:53;;;;;;;25.63;5.57;;;;;;;10.75;100.00;101094.69;7391597;19;20086;-56
2022/03/22 08:40:19;;;;;;;19.38;6.75;;;;;;;11.09;100.00;101094.75;7398544;19;20471;-56
2022/03/22 08:42:46;;;;;;;18.65;6.28;;;;;;;11.43;100.00;101092.03;7398723;19;20478;-56
2022/03/22 08:45:14;;;;;;;13.75;5.10;;;;;;;11.66;100.00;101094.38;7399987;19;20531;-56
2022/03/22 08:47:41;;;;;;;14.57;6.32;;;;;;;11.66;100.00;101086.00;7400358;19;20011;-56
2022/03/22 08:50:11;;;;;;;25.20;7.13;;;;;;;11.70;100.00;101097.06;7402899;19;20011;-56
2022/03/22 08:52:38;;;;;;;16.25;5.97;;;;;;;11.74;100.00;101092.13;7400763;19;20022;-56
2022/03/22 08:55:07;;;;;;;14.85;5.45;;;;;;;11.78;100.00;101093.56;7399953;19;20025;-56
2022/03/22 08:57:36;;;;;;;21.63;7.68;;;;;;;11.77;100.00;101092.03;7398769;19;20018;-56
2022/03/22 09:00:11;;;;;;;22.23;6.72;;;;;;;11.80;100.00;101104.28;7397926;19;20011;-56
2022/03/22 09:02:42;;;;;;;11.15;4.28;;;;;;;11.90;100.00;101101.13;7397556;19;20359;-56
2022/03/22 09:07:57;;;;;;;21.27;5.32;;;;;;;12.21;100.00;101101.16;7399026;19;20082;-58
2022/03/22 09:10:24;;;;;;;16.53;7.10;;;;;;;12.33;100.00;101102.31;7397858;19;20545;-56
2022/03/22 09:12:50;;;;;;;24.05;5.63;;;;;;;12.45;100.00;101095.88;7398889;19;20019;-55
2022/03/22 09:15:20;;;;;;;21.98;7.57;;;;;;;12.57;100.00;101103.34;7396526;19;20018;-56
2022/03/22 09:17:47;;;;;;;29.75;7.80;;;;;;;12.89;100.00;101103.66;7396742;19;20050;-57
2022/03/22 09:20:13;;;;;;;15.82;6.85;;;;;;;13.36;100.00;101100.50;7399324;19;20508;-57
2022/03/22 09:22:42;;;;;;;33.13;7.30;;;;;;;13.84;100.00;101098.06;7396379;19;20019;-58
2022/03/22 09:25:09;;;;;;;15.40;6.13;;;;;;;14.20;100.00;101089.59;7398988;19;20119;-58
2022/03/22 09:27:35;;;;;;;12.90;5.93;;;;;;;14.45;100.00;101094.84;7397982;19;20030;-58
2022/03/22 09:30:01;;;;;;;12.73;6.53;;;;;;;14.68;100.00;101094.13;7398255;19;20014;-58
2022/03/22 09:32:27;;;;;;;31.98;7.63;;;;;;;14.75;100.00;101088.16;7403898;19;20018;-58
2022/03/22 09:34:52;;;;;;;15.98;5.25;;;;;;;14.78;100.00;101104.06;7395602;19;20013;-58
2022/03/22 09:37:18;;;;;;;22.65;6.70;;;;;;;14.89;100.00;101101.50;7397533;19;20054;-58
2022/03/22 09:39:45;;;;;;;17.35;6.47;;;;;;;14.99;100.00;101100.22;7397718;19;20014;-56
2022/03/22 09:42:11;;;;;;;24.58;6.30;;;;;;;15.02;100.00;101106.91;7402417;19;20095;-56
2022/03/22 09:44:37;;;;;;;15.93;5.00;;;;;;;15.17;100.00;101099.34;7397342;19;20015;-56
2022/03/22 09:47:04;;;;;;;19.83;6.03;;;;;;;15.36;100.00;101103.56;7397616;19;20021;-56
2022/03/22 09:49:31;;;;;;;17.05;6.20;;;;;;;15.43;100.00;101096.81;7398637;19;20018;-57
2022/03/22 09:51:57;;;;;;;14.60;5.20;;;;;;;15.53;100.00;101087.88;7400413;19;20070;-58
2022/03/22 09:54:23;;;;;;;13.10;4.68;;;;;;;15.58;100.00;101097.66;7395569;19;20042;-56
2022/03/22 09:56:50;;;;;;;11.65;6.22;;;;;;;15.66;100.00;101098.84;7396923;19;20014;-56
2022/03/22 09:59:17;;;;;;;21.52;4.30;;;;;;;15.80;100.00;101087.66;7398412;19;20022;-56
2022/03/22 10:01:45;;;;;;;15.80;4.18;;;;;;;15.96;100.00;101089.19;7399859;19;20014;-56
2022/03/22 10:04:13;;;;;;;19.73;5.97;;;;;;;16.05;100.00;101091.19;7398394;19;20014;-56
2022/03/22 10:06:50;;;;;;;16.38;6.57;;;;;;;16.12;100.00;101090.78;7398286;19;20022;-56
2022/03/22 10:09:33;;;;;;;15.20;3.97;;;;;;;16.19;100.00;101091.19;7398480;19;20360;-56
2022/03/22 10:11:58;;;;;;;15.52;4.55;;;;;;;16.23;100.00;101085.34;7401239;19;20007;-56
2022/03/22 10:14:38;;;;;;;14.07;4.32;;;;;;;16.21;100.00;101088.66;7395907;19;20015;-56
2022/03/22 10:17:12;;;;;;;9.70;5.07;;;;;;;16.18;100.00;101086.81;7397271;19;20078;-57
2022/03/22 10:19:49;;;;;;;12.05;3.95;;;;;;;16.34;100.00;101083.53;7397041;19;20035;-56
2022/03/22 10:22:16;;;;;;;18.45;5.40;;;;;;;16.50;100.00;101082.28;7400746;19;20015;-56
2022/03/22 10:24:49;;;;;;;14.80;5.53;;;;;;;16.56;100.00;101080.31;7396745;19;20455;-57
2022/03/22 10:27:24;;;;;;;15.93;5.72;;;;;;;16.53;100.00;101081.28;7398150;19;20017;-57
2022/03/22 10:29:51;;;;;;;11.70;5.15;;;;;;;16.60;100.00;101087.31;7395288;19;20022;-57
2022/03/22 10:32:19;;;;;;;21.75;6.43;;;;;;;16.76;100.00;101080.41;7399347;19;20019;-57
2022/03/22 10:34:45;;;;;;;15.15;5.63;;;;;;;16.89;100.00;101082.88;7396872;19;20029;-57
2022/03/22 10:37:10;;;;;;;14.80;5.38;;;;;;;16.91;100.00;101080.34;7397176;19;20110;-57
2022/03/22 10:39:40;;;;;;;6.10;3.45;;;;;;;16.97;100.00;101075.56;7397586;19;20002;-57
2022/03/22 10:42:08;;;;;;;14.02;3.97;;;;;;;17.03;100.00;101076.41;7399916;19;20091;-57
2022/03/22 10:44:38;;;;;;;19.00;5.90;;;;;;;17.16;100.00;101074.81;7397259;19;20014;-57
2022/03/22 10:47:07;;;;;;;13.85;4.45;;;;;;;17.39;100.00;101078.69;7397190;19;20018;-57
2022/03/22 10:49:33;;;;;;;21.67;5.43;;;;;;;17.57;100.00;101072.78;7396672;19;20010;-47
2022/03/22 10:51:59;;;;;;;18.98;4.07;;;;;;;17.79;100.00;101080.72;7398289;19;20459;-47
2022/03/22 10:54:25;;;;;;;19.40;6.05;;;;;;;17.98;100.00;101065.81;7396932;19;20015;-47
2022/03/22 10:56:53;;;;;;;18.15;5.15;;;;;;;18.12;100.00;101067.75;7396815;19;20018;-47
2022/03/22 10:59:21;;;;;;;16.92;5.93;;;;;;;18.14;100.00;101070.84;7395862;19;20037;-47
2022/03/22 11:01:47;;;;;;;7.03;3.15;;;;;;;18.27;100.00;101075.31;7397572;19;20021;-47
2022/03/22 11:04:19;;;;;;;8.55;4.95;;;;;;;18.32;100.00;101077.41;7396684;19;20022;-46
2022/03/22 11:06:48;;;;;;;11.43;4.32;;;;;;;18.34;100.00;101072.81;7395615;19;20029;-46
2022/03/22 11:09:22;;;;;;;12.57;5.60;;;;;;;18.30;100.00;101072.25;7395284;19;20025;-46
2022/03/22 11:11:50;;;;;;;9.82;3.47;;;;;;;18.30;100.00;101068.69;7398319;19;20023;-46
2022/03/22 11:14:18;;;;;;;24.05;6.13;;;;;;;18.30;100.00;101077.13;7395365;19;20019;-48
2022/03/22 11:16:48;;;;;;;9.40;4.47;;;;;;;18.29;100.00;101070.72;7396484;19;20135;-46
2022/03/22 11:19:16;;;;;;;9.98;4.53;;;;;;;18.31;100.00;101071.00;7396061;19;20463;-46
2022/03/22 11:21:41;;;;;;;12.57;4.82;;;;;;;18.28;100.00;101074.81;7397063;19;20103;-47
2022/03/22 11:24:13;;;;;;;13.57;5.70;;;;;;;18.31;100.00;101075.84;7394182;19;20014;-47
2022/03/22 11:26:42;;;;;;;15.68;6.63;;;;;;;18.39;100.00;101074.13;7395252;19;20018;-47
2022/03/22 11:29:17;;;;;;;22.60;6.57;;;;;;;18.34;100.00;101069.22;7394078;19;20014;-47
2022/03/22 11:34:35;;;;;;;17.55;5.35;;;;;;;18.64;100.00;101067.69;7390246;19;20018;-47
2022/03/22 11:37:01;;;;;;;15.18;5.85;;;;;;;18.69;100.00;101064.16;7391573;19;20459;-46
2022/03/22 11:42:19;;;;;;;24.35;7.50;;;;;;;18.83;100.00;101057.56;7393698;19;20096;-46
2022/03/22 11:45:03;;;;;;;17.98;5.05;;;;;;;18.96;100.00;101066.38;7391012;19;20010;-46
2022/03/22 11:47:43;;;;;;;16.02;5.57;;;;;;;19.07;100.00;101057.97;7394299;19;20531;-47
2022/03/22 11:50:16;;;;;;;13.02;5.85;;;;;;;19.05;100.00;101066.16;7394384;19;20022;-46
2022/03/22 11:52:43;;;;;;;13.00;3.85;;;;;;;19.06;100.00;101064.88;7394870;19;20018;-47
2022/03/22 11:55:21;;;;;;;19.98;5.68;;;;;;;19.10;100.00;101061.81;7390414;19;20014;-47